Latest Weather Observations for Yarram Airport

IDV60801

Issued at 7:05 pm EDT Thursday 23 October 2014 (issued every 30 minutes, with the page automatically refreshed every 10 minutes)

About weather observations | Map of weather stations | Latest weather observations for VIC | Other Formats
Station Details ID: 085151 Name: YARRAM AIRPORT Lat: -38.56 Lon: 146.75 Height: 17.9 m
Data from the previous 72 hours. | See also: Recent months at Yarram Airport
Date/Time
EDT
Temp
°C
App
Temp
°C
Dew
Point
Rel
Hum
%
Delta-T
°C
Wind Press
QNH
hPa
Press
MSL
hPa
Rain
since 9 am
mm
Dir
 
Spd
km/h
Gust
km/h
Spd
kts
Gust
kts
23/07:00pm 14.6 11.1 13.5 93 0.6 E 24 39 13 21 1020.2 1020.2 0.0
23/06:30pm 14.7 11.2 13.4 92 0.7 E 24 43 13 23 1020.1 1020.1 0.0
23/06:00pm 14.7 10.8 13.2 91 0.8 E 26 44 14 24 1020.0 1020.0 0.0
23/05:30pm 15.2 10.6 13.6 90 0.9 E 30 41 16 22 1020.2 1020.2 0.0
23/05:00pm 15.7 12.2 13.5 87 1.2 E 24 32 13 17 1020.1 1020.1 0.0
23/04:30pm 16.0 11.5 13.7 86 1.3 E 30 39 16 21 1020.1 1020.1 0.0
23/04:00pm 16.4 13.3 14.4 88 1.1 E 24 35 13 19 1020.2 1020.2 0.0
23/03:30pm 15.8 11.6 13.6 87 1.2 E 28 37 15 20 1020.3 1020.3 0.0
23/03:00pm 16.0 11.9 13.7 86 1.3 E 28 39 15 21 1020.5 1020.5 0.0
23/02:30pm 16.0 11.7 13.3 84 1.5 E 28 39 15 21 1020.9 1020.9 0.0
23/02:00pm 15.9 12.3 13.0 83 1.6 E 24 33 13 18 1021.2 1021.2 0.0
23/01:30pm 15.7 11.3 12.8 83 1.6 E 28 37 15 20 1021.3 1021.3 0.0
23/01:00pm 15.7 12.2 13.4 86 1.3 E 24 37 13 20 1021.3 1021.3 0.0
23/12:30pm 15.5 12.0 13.3 87 1.2 E 24 39 13 21 1021.4 1021.4 0.0
23/12:00pm 15.7 11.5 13.4 86 1.3 E 28 35 15 19 1021.6 1021.6 0.0
23/11:30am 15.6 12.1 13.4 87 1.2 E 24 35 13 19 1021.7 1021.7 0.0
23/11:00am 15.8 13.2 13.8 88 1.1 E 20 33 11 18 1021.8 1021.8 0.0
23/10:30am 15.6 13.7 14.1 91 0.8 E 17 28 9 15 1021.6 1021.6 0.0
23/10:00am 15.5 13.7 14.5 94 0.6 E 17 28 9 15 1021.4 1021.4 0.0
23/09:30am 15.3 14.0 14.8 97 0.3 E 15 20 8 11 1021.2 1021.2 0.0
23/09:00am 15.4 15.6 14.3 93 0.6 S 6 7 3 4 1020.9 1020.9 0.0
23/08:30am 15.4 15.1 14.3 93 0.6 SW 9 11 5 6 1020.8 1020.8 0.0
23/08:00am 15.0 15.0 14.2 95 0.5 SW 7 9 4 5 1020.5 1020.5 0.0
23/07:30am 14.2 14.0 13.7 97 0.3 WSW 7 11 4 6 1020.1 1020.1 0.0
23/07:00am 13.5 13.2 13.3 99 0.1 W 7 11 4 6 1019.8 1019.8 0.0
23/06:30am 12.7 11.4 12.4 98 0.2 WSW 11 15 6 8 1019.4 1019.4 0.0
23/06:00am 13.6 11.7 13.0 96 0.3 SW 15 19 8 10 1018.9 1018.9 0.0
23/05:30am 13.9 11.3 13.3 96 0.3 SW 19 24 10 13 1018.2 1018.2 0.0
23/05:00am 14.2 11.7 13.4 95 0.4 SW 19 22 10 12 1017.7 1017.7 0.0
23/04:30am 14.5 11.5 13.7 95 0.4 SW 22 30 12 16 1017.1 1017.1 0.0
23/04:00am 15.2 12.3 14.1 93 0.6 SW 22 30 12 16 1016.3 1016.3 0.0
23/03:30am 15.9 13.1 13.2 84 1.5 SSW 20 30 11 16 1015.5 1015.5 0.0
23/03:00am 17.1 15.3 12.2 73 2.7 WSW 13 20 7 11 1014.8 1014.8 0.0
23/02:30am 20.1 17.0 12.3 61 4.4 NNW 20 33 11 18 1015.2 1015.2 0.0
23/02:00am 19.8 14.9 14.2 70 3.2 NW 33 46 18 25 1016.8 1016.8 0.0
23/01:30am 18.5 16.4 16.1 86 1.4 W 22 32 12 17 1017.1 1017.1 0.0
23/01:00am 18.0 16.8 16.0 88 1.2 WNW 17 20 9 11 1016.9 1016.9 0.0
23/12:30am 16.3 16.1 15.8 97 0.3 W 11 17 6 9 1016.6 1016.6 0.0
23/12:00am 15.6 15.8 14.8 95 0.5 NNE 7 9 4 5 1016.3 1016.3 0.0
 
Date/Time
EDT
Temp
°C
App
Temp
°C
Dew
Point
Rel
Hum
%
Delta-T
°C
Wind Press
QNH
hPa
Press
MSL
hPa
Rain
since 9 am
mm
Dir
 
Spd
km/h
Gust
km/h
Spd
kts
Gust
kts
22/11:30pm 16.2 17.1 15.1 93 0.6 SE 4 9 2 5 1016.1 1016.1 0.0
22/11:00pm 16.3 16.4 14.5 89 1.0 NW 7 15 4 8 1016.5 1016.5 0.0
22/10:30pm 16.5 15.4 14.2 86 1.3 N 13 15 7 8 1016.1 1016.1 0.0
22/10:00pm 16.8 15.8 14.6 87 1.3 SE 13 17 7 9 1016.6 1016.6 0.0
22/09:30pm 16.9 16.6 14.4 85 1.4 SE 9 11 5 6 1016.1 1016.1 0.0
22/09:00pm 18.3 17.2 13.2 72 2.9 NE 11 17 6 9 1015.7 1015.7 0.0
22/08:30pm 18.5 17.6 14.8 79 2.2 E 13 19 7 10 1015.3 1015.3 0.0
22/08:00pm 18.8 17.9 14.9 78 2.3 E 13 17 7 9 1015.1 1015.1 0.0
22/07:30pm 19.0 18.6 15.3 79 2.2 ESE 11 13 6 7 1015.2 1015.2 0.0
22/07:00pm 21.8 21.6 14.7 64 4.2 E 9 13 5 7 1014.9 1014.9 0.0
22/06:30pm 23.8 23.8 15.3 59 5.1 E 9 13 5 7 1015.0 1015.0 0.0
22/06:00pm 24.9 23.4 14.1 51 6.4 ENE 15 20 8 11 1014.8 1014.8 0.0
22/05:30pm 25.4 23.4 13.9 49 6.8 E 17 24 9 13 1015.2 1015.2 0.0
22/05:00pm 26.0 24.5 15.4 52 6.4 ESE 17 20 9 11 1015.4 1015.4 0.0
22/04:30pm 26.5 24.2 12.9 43 7.9 E 17 22 9 12 1015.4 1015.4 0.0
22/04:00pm 27.0 25.1 14.1 45 7.7 E 17 20 9 11 1015.7 1015.7 0.0
22/03:30pm 27.1 25.1 13.8 44 7.9 E 17 22 9 12 1016.0 1016.0 0.0
22/03:00pm 27.6 25.9 14.6 45 7.8 E 17 20 9 11 1016.3 1016.3 0.0
22/02:30pm 27.8 26.5 13.7 42 8.4 E 13 20 7 11 1016.5 1016.5 0.0
22/02:00pm 28.3 27.8 14.9 44 8.1 ESE 11 19 6 10 1016.6 1016.6 0.0
22/01:30pm 28.3 28.6 14.9 44 8.1 SSW 7 13 4 7 1017.1 1017.1 0.0
22/01:00pm 27.5 27.1 13.1 41 8.5 SE 7 13 4 7 1017.3 1017.3 0.0
22/12:30pm 26.7 27.4 16.0 52 6.6 SSE 7 13 4 7 1017.9 1017.9 0.0
22/12:00pm 26.1 26.9 17.2 58 5.5 SSE 9 13 5 7 1018.2 1018.2 0.0
22/11:30am 25.0 25.4 16.4 59 5.3 SSE 9 11 5 6 1018.7 1018.7 0.0
22/11:00am 23.5 24.3 17.3 68 3.8 SSW 9 13 5 7 1019.3 1019.3 0.0
22/10:30am 22.0 22.9 17.6 76 2.7 SSW 9 11 5 6 1019.6 1019.6 0.0
22/10:00am 20.0 21.6 16.0 78 2.4 SE 2 6 1 3 1019.5 1019.5 0.0
22/09:30am 16.1 17.3 13.9 87 1.2 CALM 0 0 0 0 1019.6 1019.6 0.0
22/09:00am 13.6 14.6 13.1 97 0.3 CALM 0 0 0 0 1019.7 1019.7 0.0
22/08:30am 12.1 12.8 12.1 100 0.0 CALM 0 0 0 0 1019.8 1019.8 0.0
22/08:00am 9.5 9.4 9.5 100 0.0 CALM 0 0 0 0 1020.1 1020.1 0.0
22/07:30am 7.1 6.4 7.1 100 0.0 CALM 0 0 0 0 1020.3 1020.3 0.0
22/07:00am 5.8 4.8 5.8 100 0.0 CALM 0 0 0 0 1020.5 1020.5 0.0
22/06:30am 5.2 4.1 5.2 100 0.0 CALM 0 0 0 0 1020.5 1020.5 0.0
22/06:00am 5.1 4.0 5.1 100 0.0 CALM 0 0 0 0 1020.3 1020.3 0.0
22/05:30am 5.4 4.4 5.4 100 0.0 CALM 0 0 0 0 1020.5 1020.5 0.0
22/05:00am 4.1 2.8 4.1 100 0.0 CALM 0 0 0 0 1020.6 1020.6 0.0
22/04:30am 4.3 3.0 4.3 100 0.0 CALM 0 0 0 0 1020.8 1020.8 0.0
22/04:00am 5.2 4.1 5.2 100 0.0 CALM 0 0 0 0 1020.9 1020.9 0.0
22/03:30am 5.6 4.6 5.6 100 0.0 CALM 0 0 0 0 1021.3 1021.3 0.0
22/03:00am 5.7 4.7 5.7 100 0.0 CALM 0 0 0 0 1021.8 1021.8 0.0
22/02:30am 6.1 5.2 6.1 100 0.0 CALM 0 0 0 0 1022.2 1022.2 0.0
22/02:00am 5.8 4.8 5.8 100 0.0 CALM 0 0 0 0 1022.7 1022.7 0.0
22/01:30am 4.9 3.8 4.9 100 0.0 CALM 0 0 0 0 1023.1 1023.1 0.0
22/01:00am 6.0 5.1 6.0 100 0.0 CALM 0 0 0 0 1023.7 1023.7 0.0
22/12:30am 6.6 4.5 6.6 100 0.0 ENE 7 11 4 6 1024.2 1024.2 0.0
22/12:00am 7.5 6.9 7.5 100 0.0 CALM 0 0 0 0 1024.5 1024.5 0.0
 
Date/Time
EDT
Temp
°C
App
Temp
°C
Dew
Point
Rel
Hum
%
Delta-T
°C
Wind Press
QNH
hPa
Press
MSL
hPa
Rain
since 9 am
mm
Dir
 
Spd
km/h
Gust
km/h
Spd
kts
Gust
kts
21/11:30pm 6.5 5.7 6.5 100 0.0 CALM 0 0 0 0 1025.0 1025.0 0.0
21/11:00pm 7.0 6.3 6.9 99 0.0 CALM 0 0 0 0 1025.3 1025.3 0.0
21/10:30pm 7.3 6.3 7.2 99 0.0 NW 2 6 1 3 1025.6 1025.6 0.0
21/10:00pm 7.0 6.2 6.4 96 0.3 CALM 0 0 0 0 1025.9 1025.9 0.0
21/09:30pm 8.5 6.9 8.1 97 0.2 ENE 6 6 3 3 1025.9 1025.9 0.0
21/09:00pm 9.3 7.7 8.1 92 0.6 E 6 7 3 4 1026.1 1026.1 0.0
21/08:30pm 11.1 9.9 9.7 91 0.7 E 6 7 3 4 1026.1 1026.1 0.0
21/08:00pm 12.3 10.8 10.4 88 1.0 E 9 13 5 7 1026.1 1026.1 0.0
21/07:30pm 13.5 11.4 11.0 85 1.3 E 13 20 7 11 1026.0 1026.0 0.0
21/07:00pm 14.6 11.4 11.2 80 1.8 E 19 28 10 15 1025.8 1025.8 0.0
21/06:30pm 15.3 11.5 11.3 77 2.1 E 22 32 12 17 1026.0 1026.0 0.0
21/06:00pm 16.1 12.5 11.7 75 2.4 E 22 33 12 18 1026.0 1026.0 0.0
21/05:30pm 16.5 12.7 11.0 70 2.9 E 22 37 12 20 1026.0 1026.0 0.0
21/05:00pm 16.9 12.4 11.4 70 3.0 E 26 37 14 20 1026.2 1026.2 0.0
21/04:30pm 17.1 12.9 11.2 68 3.2 E 24 35 13 19 1026.4 1026.4 0.0
21/04:00pm 17.7 13.1 11.0 65 3.6 E 26 39 14 21 1026.7 1026.8 0.0
21/03:30pm 18.2 14.1 11.5 65 3.7 E 24 35 13 19 1027.0 1027.1 0.0
21/03:00pm 18.1 14.2 10.7 62 4.0 E 22 33 12 18 1027.3 1027.3 0.0
21/02:30pm 17.9 13.2 10.8 63 3.8 ENE 26 35 14 19 1027.6 1027.6 0.0
21/02:00pm 18.2 13.3 10.1 59 4.3 E 26 37 14 20 1028.1 1028.1 0.0
21/01:30pm 17.8 12.5 9.7 59 4.3 E 28 37 15 20 1028.4 1028.4 0.0
21/01:00pm 17.6 12.0 10.0 61 4.0 E 30 41 16 22 1028.6 1028.6 0.0
21/12:30pm 17.3 11.9 9.5 60 4.1 E 28 39 15 21 1028.7 1028.7 0.0
21/12:00pm 17.3 12.2 9.2 59 4.2 E 26 41 14 22 1029.1 1029.1 0.0
21/11:30am 17.6 12.8 10.2 62 3.9 E 26 39 14 21 1029.4 1029.4 0.0
21/11:00am 17.8 13.6 9.7 59 4.2 ENE 22 33 12 18 1029.6 1029.6 0.0
21/10:30am 16.8 12.0 8.8 59 4.1 ENE 24 37 13 20 1029.8 1029.8 0.0
21/10:00am 16.5 11.8 9.4 63 3.7 ENE 24 35 13 19 1029.9 1029.9 0.0
21/09:30am 15.9 10.8 9.3 65 3.4 NE 26 35 14 19 1030.0 1030.0 0.0
21/09:00am 15.2 9.7 9.1 67 3.1 NE 28 39 15 21 1029.9 1029.9 0.0
21/08:30am 14.6 9.2 9.4 71 2.7 NE 28 43 15 23 1029.6 1029.6 0.0
21/08:00am 13.9 9.6 9.3 74 2.3 NE 22 35 12 19 1029.6 1029.6 0.0
21/07:30am 12.9 9.4 8.8 76 2.1 NE 17 24 9 13 1029.5 1029.5 0.0
21/07:00am 12.0 8.4 8.3 78 1.8 ENE 17 26 9 14 1029.3 1029.3 0.0
21/06:30am 11.4 7.4 8.1 80 1.6 ENE 19 26 10 14 1029.0 1029.0 0.0
21/06:00am 11.6 7.3 7.9 78 1.8 ENE 20 32 11 17 1028.9 1028.9 0.0
21/05:30am 11.6 7.2 7.5 76 2.0 ENE 20 32 11 17 1028.9 1028.9 0.0
21/05:00am 11.6 7.5 7.9 78 1.8 ENE 19 26 10 14 1029.0 1029.0 0.0
21/04:30am 11.8 7.5 7.9 77 1.9 ENE 20 30 11 16 1028.9 1028.9 0.0
21/04:00am 11.8 7.5 7.9 77 1.9 ENE 20 32 11 17 1029.1 1029.1 0.0
21/03:30am 12.1 7.8 7.8 75 2.1 ENE 20 30 11 16 1029.5 1029.5 0.0
21/03:00am 12.4 8.3 8.5 77 1.9 ENE 20 32 11 17 1029.7 1029.7 0.0
21/02:30am 12.2 8.0 8.1 76 2.0 ENE 20 32 11 17 1029.9 1029.9 0.0
21/02:00am 12.0 7.7 7.7 75 2.1 ENE 20 30 11 16 1030.3 1030.3 0.0
21/01:30am 11.6 7.4 7.5 76 2.0 ENE 19 24 10 13 1030.7 1030.7 0.0
21/01:00am 11.8 7.5 7.7 76 2.0 ENE 20 30 11 16 1031.1 1031.1 0.0
21/12:30am 12.1 7.7 7.6 74 2.2 ENE 20 32 11 17 1031.4 1031.4 0.0
21/12:00am 11.8 7.6 7.3 74 2.1 ENE 19 28 10 15 1031.7 1031.7 0.0
 
Date/Time
EDT
Temp
°C
App
Temp
°C
Dew
Point
Rel
Hum
%
Delta-T
°C
Wind Press
QNH
hPa
Press
MSL
hPa
Rain
since 9 am
mm
Dir
 
Spd
km/h
Gust
km/h
Spd
kts
Gust
kts
20/11:30pm 12.1 7.7 7.2 72 2.4 ENE 20 28 11 15 1031.9 1031.9 0.0
20/11:00pm 12.3 8.1 7.4 72 2.4 ENE 19 32 10 17 1032.2 1032.2 0.0
20/10:30pm 12.3 7.9 7.4 72 2.4 ENE 20 32 11 17 1032.1 1032.1 0.0
20/10:00pm 12.1 7.3 7.4 73 2.3 E 22 32 12 17 1032.1 1032.1 0.0
20/09:30pm 11.6 7.1 7.1 74 2.2 E 20 30 11 16 1032.0 1032.0 0.0
20/09:00pm 11.7 7.3 7.2 74 2.1 E 20 32 11 17 1032.0 1032.0 0.0
20/08:30pm 11.5 7.1 7.4 76 2.0 E 20 30 11 16 1031.8 1031.8 0.0
20/08:00pm 11.9 7.5 7.4 74 2.2 E 20 28 11 15 1031.5 1031.5 0.0
20/07:30pm 12.5 7.8 7.8 73 2.3 E 22 33 12 18 1031.5 1031.5 0.0

Other Formats:

Comma delimited format used in spreadsheet applications
http://www.bom.gov.au/fwo/IDV60801/IDV60801.95890.axf

JavaScript Object Notation format (JSON) in row-major order
http://www.bom.gov.au/fwo/IDV60801/IDV60801.95890.json